Time;durP1;ratioP1;P1;durP2;ratioP2;P2;SDS_P1;SDS_P2;PMS_P1;PMS_P2;Temp;Humidity;BMP_temperature;BMP_pressure;BME280_temperature;BME280_humidity;BME280_pressure;Samples;Min_cycle;Max_cycle;Signal;HPM_P1;HPM_P2
2021/01/26 00:00:52;;;;;;;16.17;9.32;;;23.00;28.40;;;;;;6168840;27;80651;-65
2021/01/26 00:03:53;;;;;;;17.77;9.60;;;23.00;28.20;;;;;;6158883;28;82692;-65
2021/01/26 00:06:53;;;;;;;16.83;9.50;;;22.90;28.40;;;;;;6151121;28;81229;-65
2021/01/26 00:09:54;;;;;;;17.17;8.93;;;22.90;28.20;;;;;;6147363;28;80445;-65
2021/01/26 00:12:54;;;;;;;16.33;9.50;;;22.90;28.30;;;;;;6163895;28;80720;-65
2021/01/26 00:15:55;;;;;;;16.15;8.82;;;22.90;28.20;;;;;;6171595;28;81228;-65
2021/01/26 00:18:56;;;;;;;13.77;9.30;;;22.80;28.40;;;;;;6174884;28;80967;-65
2021/01/26 00:21:56;;;;;;;17.15;9.43;;;22.80;28.20;;;;;;6159210;28;80778;-65
2021/01/26 00:24:57;;;;;;;15.43;8.93;;;22.80;28.30;;;;;;6183704;28;81144;-65
2021/01/26 00:27:57;;;;;;;16.38;9.45;;;22.80;28.40;;;;;;6168281;28;80650;-65
2021/01/26 00:30:58;;;;;;;19.92;9.82;;;22.80;28.50;;;;;;6175306;28;88613;-65
2021/01/26 00:33:59;;;;;;;16.48;10.13;;;22.80;28.50;;;;;;6173455;27;81598;-65
2021/01/26 00:36:59;;;;;;;16.95;9.35;;;22.70;28.40;;;;;;6175067;27;83308;-65
2021/01/26 00:40:00;;;;;;;17.35;9.77;;;22.70;28.30;;;;;;6177127;27;83117;-64
2021/01/26 00:43:00;;;;;;;19.70;9.43;;;22.70;28.30;;;;;;6154110;27;81574;-64
2021/01/26 00:46:01;;;;;;;17.23;9.88;;;22.70;28.50;;;;;;6152146;28;80512;-65
2021/01/26 00:49:01;;;;;;;18.08;10.23;;;22.70;28.50;;;;;;6159767;28;82210;-65
2021/01/26 00:52:02;;;;;;;16.58;9.55;;;22.70;28.50;;;;;;6169799;28;83294;-65
2021/01/26 00:55:03;;;;;;;17.52;10.20;;;22.60;28.50;;;;;;6166350;28;85704;-65
2021/01/26 00:58:04;;;;;;;18.25;9.68;;;22.70;28.50;;;;;;6152583;28;83327;-65
2021/01/26 01:01:05;;;;;;;15.57;8.60;;;22.60;28.60;;;;;;6151663;28;83636;-64
2021/01/26 01:04:07;;;;;;;19.58;10.25;;;22.60;28.40;;;;;;6189117;28;83260;-66
2021/01/26 01:07:08;;;;;;;17.08;9.80;;;22.60;28.50;;;;;;6167608;28;86126;-65
2021/01/26 01:10:08;;;;;;;17.95;9.63;;;22.60;28.40;;;;;;6156626;28;83897;-65
2021/01/26 01:13:09;;;;;;;21.98;10.07;;;22.60;28.60;;;;;;6169635;28;81998;-65
2021/01/26 01:16:09;;;;;;;16.65;9.82;;;22.60;28.70;;;;;;6171997;28;83183;-65
2021/01/26 01:19:10;;;;;;;16.95;9.57;;;22.50;28.40;;;;;;6156206;28;82939;-65
2021/01/26 01:22:10;;;;;;;19.90;10.40;;;22.50;28.40;;;;;;6168942;28;81379;-65
2021/01/26 01:25:11;;;;;;;20.80;10.15;;;22.50;28.50;;;;;;6176643;27;83341;-66
2021/01/26 01:28:12;;;;;;;22.58;10.35;;;22.50;28.60;;;;;;6175803;28;83466;-65
2021/01/26 01:31:12;;;;;;;20.00;10.48;;;22.50;28.60;;;;;;6171058;28;83127;-66
2021/01/26 01:34:13;;;;;;;21.60;10.50;;;22.50;28.60;;;;;;6174110;27;83077;-65
2021/01/26 01:37:13;;;;;;;20.17;10.38;;;22.50;28.60;;;;;;6155530;28;85574;-66
2021/01/26 01:40:14;;;;;;;18.63;10.02;;;22.50;28.40;;;;;;6152941;28;83220;-65
2021/01/26 01:43:14;;;;;;;18.95;9.63;;;22.50;28.50;;;;;;6171564;28;83371;-66
2021/01/26 01:46:15;;;;;;;19.75;10.10;;;22.40;28.40;;;;;;6168981;28;83591;-66
2021/01/26 01:49:15;;;;;;;17.17;9.40;;;22.50;28.40;;;;;;6168427;28;83364;-66
2021/01/26 01:52:16;;;;;;;19.70;10.15;;;22.50;28.50;;;;;;6177613;28;83389;-66
2021/01/26 01:55:16;;;;;;;14.60;8.60;;;22.40;28.50;;;;;;6173191;28;83583;-64
2021/01/26 01:58:17;;;;;;;21.33;10.90;;;22.40;28.50;;;;;;6177598;27;82741;-65
2021/01/26 02:01:18;;;;;;;19.33;9.70;;;22.40;28.70;;;;;;6175252;28;82958;-65
2021/01/26 02:04:18;;;;;;;20.15;10.02;;;22.40;28.60;;;;;;6169817;28;82795;-65
2021/01/26 02:07:19;;;;;;;16.88;8.73;;;22.40;28.60;;;;;;6175947;28;84196;-64
2021/01/26 02:10:19;;;;;;;16.88;9.23;;;22.40;28.70;;;;;;6172588;28;83980;-64
2021/01/26 02:13:20;;;;;;;18.48;8.80;;;22.40;28.60;;;;;;6153058;28;80615;-65
2021/01/26 02:16:20;;;;;;;20.52;9.63;;;22.40;28.60;;;;;;6142042;28;80281;-64
2021/01/26 02:19:21;;;;;;;17.52;8.63;;;22.40;28.70;;;;;;6175211;28;80229;-65
2021/01/26 02:22:21;;;;;;;21.33;9.07;;;22.40;28.40;;;;;;6177307;27;80637;-65
2021/01/26 02:25:22;;;;;;;21.48;9.38;;;22.40;28.70;;;;;;6176776;28;81778;-65
2021/01/26 02:28:22;;;;;;;19.10;9.18;;;22.40;28.70;;;;;;6162042;27;81429;-64
2021/01/26 02:31:23;;;;;;;17.70;8.05;;;22.30;28.50;;;;;;6130830;28;83195;-65
2021/01/26 02:34:23;;;;;;;15.32;8.18;;;22.40;28.80;;;;;;6169483;28;80697;-65
2021/01/26 02:37:24;;;;;;;18.85;9.48;;;22.30;28.60;;;;;;6174413;28;82107;-66
2021/01/26 02:40:24;;;;;;;15.43;8.13;;;22.40;28.60;;;;;;6176235;27;80723;-65
2021/01/26 02:43:25;;;;;;;15.73;7.97;;;22.30;28.70;;;;;;6169195;28;83958;-66
2021/01/26 02:46:26;;;;;;;15.50;8.48;;;22.30;28.70;;;;;;6159646;28;81857;-65
2021/01/26 02:49:26;;;;;;;14.82;8.05;;;22.30;28.50;;;;;;6151115;28;81441;-64
2021/01/26 02:52:27;;;;;;;18.63;8.50;;;22.30;28.60;;;;;;6154888;28;85469;-64
2021/01/26 02:55:27;;;;;;;16.98;7.97;;;22.30;28.50;;;;;;6174256;28;83689;-64
2021/01/26 02:58:28;;;;;;;13.77;6.93;;;22.30;28.60;;;;;;6172185;28;81102;-64
2021/01/26 03:01:28;;;;;;;14.57;7.82;;;22.30;28.50;;;;;;6172215;28;80947;-65
2021/01/26 03:04:29;;;;;;;13.77;7.38;;;22.30;28.90;;;;;;6177385;28;83518;-64
2021/01/26 03:07:29;;;;;;;16.38;8.57;;;22.30;28.60;;;;;;6152165;28;81349;-64
2021/01/26 03:10:30;;;;;;;15.35;7.72;;;22.30;28.50;;;;;;6152368;28;80596;-64
2021/01/26 03:13:30;;;;;;;19.35;8.25;;;22.30;28.40;;;;;;6151228;28;80688;-64
2021/01/26 03:16:31;;;;;;;14.57;7.88;;;22.30;28.60;;;;;;6149020;28;81112;-64
2021/01/26 03:19:31;;;;;;;15.55;8.10;;;22.30;28.50;;;;;;6175193;28;80491;-64
2021/01/26 03:22:32;;;;;;;16.25;8.23;;;22.20;28.50;;;;;;6147905;28;80884;-64
2021/01/26 03:25:32;;;;;;;17.90;8.60;;;22.30;28.40;;;;;;6154297;28;80918;-65
2021/01/26 03:28:33;;;;;;;17.38;9.00;;;22.20;28.30;;;;;;6166755;28;90764;-65
2021/01/26 03:31:33;;;;;;;17.38;8.43;;;22.30;28.50;;;;;;6177900;27;80938;-64
2021/01/26 03:34:34;;;;;;;17.20;8.88;;;22.20;28.50;;;;;;6168959;28;80787;-64
2021/01/26 03:37:35;;;;;;;20.30;9.20;;;22.30;28.50;;;;;;6177332;27;80226;-64
2021/01/26 03:40:35;;;;;;;16.73;8.90;;;22.20;28.60;;;;;;6153035;28;80397;-64
2021/01/26 03:43:36;;;;;;;16.23;9.02;;;22.20;28.50;;;;;;6174613;28;80059;-64
2021/01/26 03:46:36;;;;;;;18.67;9.57;;;22.20;28.90;;;;;;6175931;28;80548;-64
2021/01/26 03:49:37;;;;;;;16.23;9.00;;;22.20;28.70;;;;;;6177821;28;80673;-63
2021/01/26 03:52:37;;;;;;;19.50;8.50;;;22.30;28.50;;;;;;6173929;28;82079;-63
2021/01/26 03:55:38;;;;;;;16.70;9.13;;;22.20;28.50;;;;;;6174328;28;81572;-63
2021/01/26 03:58:38;;;;;;;18.90;9.05;;;22.20;28.50;;;;;;6173076;28;80673;-63
2021/01/26 04:01:39;;;;;;;18.33;8.88;;;22.30;28.50;;;;;;6177347;28;81361;-62
2021/01/26 04:04:40;;;;;;;21.40;9.93;;;22.20;28.50;;;;;;6175721;28;81434;-62
2021/01/26 04:07:41;;;;;;;16.98;9.05;;;22.20;28.60;;;;;;6177032;28;80311;-62
2021/01/26 04:10:41;;;;;;;17.80;9.48;;;22.20;28.90;;;;;;6175979;27;80896;-61
2021/01/26 04:13:42;;;;;;;19.20;9.65;;;22.20;28.90;;;;;;6177527;27;81207;-61
2021/01/26 04:16:42;;;;;;;18.02;8.88;;;22.20;28.80;;;;;;6152940;28;81311;-61
2021/01/26 04:19:43;;;;;;;16.63;8.88;;;22.20;28.90;;;;;;6168614;28;82395;-62
2021/01/26 04:22:43;;;;;;;17.00;9.02;;;22.20;28.80;;;;;;6175977;28;80859;-61
2021/01/26 04:25:44;;;;;;;17.23;8.93;;;22.20;28.90;;;;;;6180829;28;81192;-62
2021/01/26 04:28:44;;;;;;;17.67;9.23;;;22.00;28.70;;;;;;6176766;28;80633;-61
2021/01/26 04:31:45;;;;;;;17.88;9.10;;;22.20;28.90;;;;;;6153067;28;81091;-61
2021/01/26 04:34:46;;;;;;;18.42;9.00;;;22.20;28.90;;;;;;6149892;27;81362;-62
2021/01/26 04:37:46;;;;;;;22.20;10.25;;;22.10;28.90;;;;;;6173904;28;80521;-61
2021/01/26 04:40:47;;;;;;;16.73;8.85;;;22.20;28.80;;;;;;6165240;27;83257;-62
2021/01/26 04:43:47;;;;;;;18.65;9.48;;;22.20;28.90;;;;;;6158032;28;81596;-61
2021/01/26 04:46:48;;;;;;;21.63;9.80;;;22.10;28.80;;;;;;6179790;28;80719;-61
2021/01/26 04:49:48;;;;;;;17.95;9.55;;;22.20;28.90;;;;;;6130165;28;85717;-64
2021/01/26 04:52:49;;;;;;;19.80;9.13;;;22.10;28.90;;;;;;6180192;27;81412;-62
2021/01/26 04:55:49;;;;;;;19.50;9.32;;;22.10;28.90;;;;;;6155925;28;80388;-63
2021/01/26 04:58:50;;;;;;;18.67;9.52;;;22.20;28.70;;;;;;6177432;28;80651;-62
2021/01/26 05:01:50;;;;;;;20.60;9.70;;;22.10;28.90;;;;;;6172584;28;80389;-62
2021/01/26 05:04:51;;;;;;;20.10;10.40;;;22.20;28.90;;;;;;6169894;27;82004;-62
2021/01/26 05:07:51;;;;;;;18.75;9.55;;;22.20;28.70;;;;;;6167580;28;83454;-62
2021/01/26 05:10:52;;;;;;;19.80;9.10;;;22.20;28.70;;;;;;6174554;27;82976;-62
2021/01/26 05:13:52;;;;;;;17.90;8.88;;;22.20;28.60;;;;;;6153030;28;80448;-64
2021/01/26 05:16:53;;;;;;;23.33;10.27;;;22.20;28.70;;;;;;6157177;28;89805;-65
2021/01/26 05:19:53;;;;;;;19.02;9.45;;;22.20;28.60;;;;;;6167861;27;83363;-62
2021/01/26 05:22:54;;;;;;;17.00;9.48;;;22.20;28.80;;;;;;6155078;28;82933;-62
2021/01/26 05:25:55;;;;;;;18.17;9.13;;;22.20;29.30;;;;;;6156256;28;80422;-61
2021/01/26 05:28:55;;;;;;;17.77;8.90;;;22.30;29.60;;;;;;6155096;28;81168;-66
2021/01/26 05:31:56;;;;;;;18.92;7.90;;;22.30;30.00;;;;;;6181009;28;80694;-61
2021/01/26 05:34:56;;;;;;;16.27;8.25;;;22.40;31.20;;;;;;6184128;28;80464;-61
2021/01/26 05:37:57;;;;;;;13.70;7.75;;;22.40;30.40;;;;;;6179449;27;80999;-62
2021/01/26 05:40:58;;;;;;;15.60;7.80;;;22.50;30.10;;;;;;6157285;28;80801;-62
2021/01/26 05:43:59;;;;;;;18.05;9.07;;;22.60;29.90;;;;;;6175825;28;80757;-61
2021/01/26 05:47:03;;;;;;;22.35;8.43;;;22.50;30.30;;;;;;6177666;28;81458;-65
2021/01/26 05:50:04;;;;;;;16.23;8.20;;;22.60;30.00;;;;;;6175184;28;80377;-65
2021/01/26 05:53:05;;;;;;;13.70;7.47;;;22.70;30.00;;;;;;6176680;28;81253;-66
2021/01/26 05:56:10;;;;;;;16.08;7.97;;;22.80;30.20;;;;;;6158812;28;80976;-64
2021/01/26 05:59:11;;;;;;;15.25;8.43;;;22.80;29.90;;;;;;6174293;27;80625;-62
2021/01/26 06:02:11;;;;;;;16.38;8.35;;;22.90;30.60;;;;;;6162399;28;83245;-64
2021/01/26 06:05:16;;;;;;;16.65;7.85;;;22.90;30.40;;;;;;6168440;28;80669;-63
2021/01/26 06:08:17;;;;;;;16.35;7.97;;;22.90;30.00;;;;;;6145476;28;80580;-62
2021/01/26 06:11:17;;;;;;;18.45;8.00;;;22.90;30.00;;;;;;6156749;28;83910;-62
2021/01/26 06:14:18;;;;;;;19.65;8.07;;;23.00;30.30;;;;;;6150873;28;81240;-61
2021/01/26 06:17:18;;;;;;;20.45;7.88;;;23.10;30.40;;;;;;6156264;28;81073;-62
2021/01/26 06:20:19;;;;;;;16.10;8.25;;;23.10;30.30;;;;;;6179075;28;80714;-62
2021/01/26 06:23:19;;;;;;;20.23;8.38;;;23.10;30.60;;;;;;6178358;27;80531;-62
2021/01/26 06:26:20;;;;;;;16.02;8.65;;;23.10;30.70;;;;;;6159911;27;80710;-63
2021/01/26 06:29:20;;;;;;;15.15;7.85;;;23.20;30.70;;;;;;6172917;27;81154;-62
2021/01/26 06:32:22;;;;;;;16.75;9.15;;;23.20;30.70;;;;;;6158267;28;80702;-64
2021/01/26 06:35:22;;;;;;;15.65;8.00;;;23.20;30.50;;;;;;6186404;28;80605;-64
2021/01/26 06:38:23;;;;;;;16.30;8.57;;;23.20;30.50;;;;;;6179203;28;80885;-61
2021/01/26 06:41:23;;;;;;;12.50;6.82;;;23.20;30.30;;;;;;6177915;27;83380;-62
2021/01/26 06:44:24;;;;;;;19.30;8.23;;;23.30;30.00;;;;;;6179943;28;80414;-63
2021/01/26 06:47:24;;;;;;;15.57;7.93;;;23.30;30.30;;;;;;6177122;28;80760;-63
2021/01/26 06:50:25;;;;;;;18.15;8.38;;;23.30;29.90;;;;;;6175231;28;80857;-63
2021/01/26 06:53:25;;;;;;;17.45;7.22;;;23.20;29.90;;;;;;6154610;28;83545;-63
2021/01/26 06:56:26;;;;;;;15.25;7.63;;;23.20;30.30;;;;;;6156322;28;80849;-63
2021/01/26 06:59:26;;;;;;;17.00;7.68;;;23.10;30.00;;;;;;6181207;27;80685;-63
2021/01/26 07:02:27;;;;;;;15.68;8.05;;;23.10;29.80;;;;;;6181290;28;80855;-65
2021/01/26 07:05:27;;;;;;;14.93;7.45;;;23.20;29.80;;;;;;6174106;27;80496;-64
2021/01/26 07:08:28;;;;;;;13.40;7.63;;;23.10;29.20;;;;;;6156283;27;80369;-66
2021/01/26 07:11:28;;;;;;;16.00;8.38;;;23.10;29.20;;;;;;6181460;27;81038;-66
2021/01/26 07:14:29;;;;;;;15.45;8.48;;;23.20;29.40;;;;;;6168251;27;80526;-65
2021/01/26 07:17:30;;;;;;;14.82;8.00;;;23.20;28.80;;;;;;6163632;28;81291;-62
2021/01/26 07:20:30;;;;;;;16.08;8.63;;;23.20;28.80;;;;;;6184684;27;81046;-62
2021/01/26 07:23:31;;;;;;;15.43;8.73;;;23.20;28.70;;;;;;6176211;28;80837;-64
2021/01/26 07:26:31;;;;;;;16.85;7.60;;;23.20;28.60;;;;;;6177191;28;81089;-63
2021/01/26 07:29:32;;;;;;;17.30;7.88;;;23.20;29.60;;;;;;6177753;27;80696;-62
2021/01/26 07:32:32;;;;;;;12.57;8.00;;;23.30;29.30;;;;;;6171785;28;80513;-61
2021/01/26 07:35:33;;;;;;;13.95;7.78;;;23.30;28.60;;;;;;6180259;27;80670;-62
2021/01/26 07:38:33;;;;;;;13.85;7.63;;;23.30;28.70;;;;;;6178309;28;81185;-62
2021/01/26 07:41:34;;;;;;;14.63;7.65;;;23.40;29.10;;;;;;6168239;27;80606;-62
2021/01/26 07:44:34;;;;;;;13.30;7.50;;;23.40;29.30;;;;;;6144330;28;80389;-62
2021/01/26 07:47:35;;;;;;;22.65;8.48;;;23.50;30.40;;;;;;6166709;28;81023;-62
2021/01/26 07:50:36;;;;;;;13.77;6.90;;;23.50;30.60;;;;;;6176446;28;80721;-62
2021/01/26 07:53:36;;;;;;;22.50;8.10;;;23.50;30.90;;;;;;6158600;28;80889;-63
2021/01/26 07:56:37;;;;;;;17.38;7.80;;;23.50;31.50;;;;;;6181867;27;80587;-63
2021/01/26 07:59:38;;;;;;;14.75;7.30;;;23.50;31.70;;;;;;6172485;28;80667;-62
2021/01/26 08:02:38;;;;;;;13.98;7.70;;;23.50;32.20;;;;;;6148614;28;81172;-62
2021/01/26 08:05:39;;;;;;;16.98;8.00;;;23.50;31.80;;;;;;6175179;28;81919;-61
2021/01/26 08:08:39;;;;;;;19.63;7.82;;;23.50;32.10;;;;;;6145435;28;82074;-61
2021/01/26 08:11:40;;;;;;;14.63;7.38;;;23.40;32.20;;;;;;6150245;28;81017;-62
2021/01/26 08:14:41;;;;;;;14.43;7.47;;;23.40;32.20;;;;;;6144638;28;80764;-62
2021/01/26 08:17:41;;;;;;;14.25;7.75;;;23.40;32.50;;;;;;6150829;28;82856;-61
2021/01/26 08:20:42;;;;;;;18.83;7.88;;;23.40;32.20;;;;;;6175728;28;81334;-62
2021/01/26 08:23:42;;;;;;;14.00;7.15;;;23.40;32.70;;;;;;6163472;28;82090;-62
2021/01/26 08:26:43;;;;;;;16.33;7.25;;;23.40;32.90;;;;;;6179683;28;80395;-62
2021/01/26 08:29:43;;;;;;;18.15;7.63;;;23.30;31.90;;;;;;6180597;27;80842;-61
2021/01/26 08:32:44;;;;;;;20.25;8.02;;;23.30;31.80;;;;;;6182659;28;80719;-63
2021/01/26 08:35:44;;;;;;;14.80;8.15;;;23.30;32.10;;;;;;6181500;28;80487;-64
2021/01/26 08:38:45;;;;;;;13.98;7.50;;;23.30;32.00;;;;;;6173826;28;80799;-64
2021/01/26 08:41:46;;;;;;;13.55;7.57;;;23.30;32.10;;;;;;6175912;27;81394;-62
2021/01/26 08:44:46;;;;;;;16.35;8.07;;;23.30;32.70;;;;;;6154244;28;80857;-64
2021/01/26 08:47:48;;;;;;;15.70;7.82;;;23.30;32.80;;;;;;6162080;28;81537;-64
2021/01/26 08:50:48;;;;;;;15.77;8.00;;;23.40;32.80;;;;;;6175958;27;85215;-64
2021/01/26 08:53:50;;;;;;;15.63;8.18;;;23.40;32.70;;;;;;6179519;28;81000;-65
2021/01/26 08:56:50;;;;;;;17.38;7.63;;;23.30;33.10;;;;;;6168502;28;80664;-66
2021/01/26 08:59:51;;;;;;;12.88;6.93;;;23.40;33.50;;;;;;6161300;28;80393;-64
2021/01/26 09:02:51;;;;;;;15.38;7.85;;;23.40;32.90;;;;;;6177215;27;80991;-66
2021/01/26 09:05:52;;;;;;;15.88;8.23;;;23.40;33.10;;;;;;6155472;28;80835;-66
2021/01/26 09:08:55;;;;;;;17.02;8.05;;;23.40;32.60;;;;;;6176935;28;80880;-65
2021/01/26 09:11:56;;;;;;;14.40;8.85;;;23.50;32.40;;;;;;6163148;28;82495;-66
2021/01/26 09:14:58;;;;;;;17.48;7.97;;;23.60;31.90;;;;;;6182705;28;81600;-67
2021/01/26 09:17:59;;;;;;;15.82;7.20;;;23.50;31.20;;;;;;6170967;28;80769;-65
2021/01/26 09:21:00;;;;;;;15.73;7.75;;;23.50;31.20;;;;;;6179275;28;80759;-65
2021/01/26 09:24:00;;;;;;;13.77;7.60;;;23.50;30.90;;;;;;6183980;28;80479;-70
2021/01/26 09:27:01;;;;;;;15.13;8.15;;;23.50;30.70;;;;;;6172314;28;81507;-66
2021/01/26 09:30:01;;;;;;;14.82;7.68;;;23.60;30.90;;;;;;6162499;27;81015;-68
2021/01/26 09:33:02;;;;;;;13.20;7.35;;;23.60;30.40;;;;;;6174958;27;81223;-67
2021/01/26 09:36:02;;;;;;;14.10;7.03;;;23.60;31.20;;;;;;6169734;28;80821;-67
2021/01/26 09:39:03;;;;;;;13.80;7.43;;;23.60;30.20;;;;;;6176196;28;81411;-66
2021/01/26 09:42:03;;;;;;;16.13;7.05;;;23.50;30.00;;;;;;6166557;28;80920;-66
2021/01/26 09:45:04;;;;;;;12.77;6.93;;;23.50;30.00;;;;;;6174859;27;81650;-65
2021/01/26 09:48:04;;;;;;;15.45;7.55;;;23.50;30.00;;;;;;6166802;28;81741;-66
2021/01/26 09:51:05;;;;;;;11.57;7.20;;;23.40;29.90;;;;;;6179005;27;80412;-66
2021/01/26 09:54:05;;;;;;;13.85;8.07;;;23.40;30.00;;;;;;6179665;28;82120;-67
2021/01/26 09:57:06;;;;;;;13.43;7.28;;;23.40;29.90;;;;;;6163405;28;80824;-66
2021/01/26 10:00:06;;;;;;;16.02;7.60;;;23.40;29.80;;;;;;6173889;28;80581;-65
2021/01/26 10:03:07;;;;;;;16.23;8.85;;;23.30;29.70;;;;;;6153100;28;80711;-66
2021/01/26 10:06:07;;;;;;;14.80;7.90;;;23.30;29.50;;;;;;6154223;28;81163;-68
2021/01/26 10:09:08;;;;;;;15.05;7.43;;;23.30;29.50;;;;;;6151301;28;81531;-65
2021/01/26 10:12:09;;;;;;;17.38;8.27;;;23.40;29.40;;;;;;6178809;28;81165;-64
2021/01/26 10:15:09;;;;;;;16.70;8.15;;;23.30;29.50;;;;;;6175322;27;80952;-64
2021/01/26 10:18:10;;;;;;;13.40;7.70;;;23.20;29.60;;;;;;6157897;28;80498;-64
2021/01/26 10:21:13;;;;;;;16.27;8.02;;;23.20;29.50;;;;;;6165377;28;80831;-67
2021/01/26 10:24:13;;;;;;;14.48;8.15;;;23.20;29.60;;;;;;6173175;28;80933;-65
2021/01/26 10:27:14;;;;;;;14.98;7.70;;;23.20;29.70;;;;;;6160188;28;80906;-66
2021/01/26 10:30:15;;;;;;;13.48;7.63;;;23.20;29.70;;;;;;6176086;28;81578;-66
2021/01/26 10:33:16;;;;;;;14.43;8.15;;;23.20;29.90;;;;;;6176962;28;80784;-65
2021/01/26 10:36:16;;;;;;;14.23;7.70;;;23.30;30.00;;;;;;6165577;28;82453;-65
2021/01/26 10:39:17;;;;;;;17.08;7.47;;;23.30;30.00;;;;;;6179120;28;80526;-66
2021/01/26 10:42:17;;;;;;;16.10;8.68;;;23.30;30.10;;;;;;6174393;27;80824;-66
2021/01/26 10:45:18;;;;;;;30.85;10.38;;;23.40;30.30;;;;;;6164396;28;80730;-66
2021/01/26 10:48:18;;;;;;;28.63;10.95;;;23.50;32.70;;;;;;6176465;28;83827;-64
2021/01/26 10:51:19;;;;;;;29.55;10.52;;;23.60;31.80;;;;;;6164221;28;83141;-67
2021/01/26 10:54:20;;;;;;;29.73;11.85;;;23.80;31.30;;;;;;6164016;28;84008;-65
2021/01/26 10:57:20;;;;;;;37.95;13.05;;;23.80;32.00;;;;;;6163265;28;84651;-65
2021/01/26 11:00:28;;;;;;;33.05;13.00;;;23.90;31.90;;;;;;6158086;28;85621;-66
2021/01/26 11:03:29;;;;;;;32.20;12.38;;;23.90;31.50;;;;;;6161333;28;83856;-66
2021/01/26 11:06:29;;;;;;;29.35;12.40;;;23.90;31.00;;;;;;6161848;28;83594;-67
2021/01/26 11:09:30;;;;;;;32.63;11.27;;;24.00;31.50;;;;;;6175592;27;82977;-65
2021/01/26 11:12:30;;;;;;;32.92;11.75;;;24.00;30.80;;;;;;6173980;28;84238;-64
2021/01/26 11:15:31;;;;;;;27.83;10.65;;;24.00;30.60;;;;;;6171189;28;84433;-65
2021/01/26 11:18:31;;;;;;;35.35;11.48;;;24.00;30.40;;;;;;6164778;28;88378;-63
2021/01/26 11:21:32;;;;;;;27.92;10.50;;;24.00;30.10;;;;;;6151575;28;90758;-65
2021/01/26 11:24:32;;;;;;;31.88;11.55;;;24.00;30.60;;;;;;6174683;27;82943;-64
2021/01/26 11:27:33;;;;;;;39.25;12.93;;;24.00;31.30;;;;;;6163484;28;83307;-65
2021/01/26 11:30:34;;;;;;;75.70;20.30;;;24.00;30.90;;;;;;6150445;27;83792;-65
2021/01/26 11:33:35;;;;;;;115.18;27.35;;;24.10;31.00;;;;;;6176793;28;84179;-65
2021/01/26 11:36:36;;;;;;;187.07;44.75;;;24.10;32.30;;;;;;6166444;28;83518;-66
2021/01/26 11:39:37;;;;;;;205.60;47.70;;;24.10;32.70;;;;;;6174565;28;84242;-65
2021/01/26 11:42:37;;;;;;;182.85;50.17;;;24.10;33.40;;;;;;6166716;27;83066;-65
2021/01/26 11:45:38;;;;;;;188.10;48.22;;;24.10;33.70;;;;;;6173275;28;83392;-66
2021/01/26 11:48:38;;;;;;;148.75;43.25;;;24.10;33.30;;;;;;6168738;28;84038;-66
2021/01/26 11:51:39;;;;;;;170.40;43.53;;;24.00;33.00;;;;;;6160787;28;83997;-67
2021/01/26 11:54:39;;;;;;;142.13;38.75;;;24.00;32.00;;;;;;6163405;28;85933;-66
2021/01/26 11:57:40;;;;;;;141.02;36.92;;;24.00;31.50;;;;;;6157443;27;82956;-65
2021/01/26 12:00:40;;;;;;;154.25;42.88;;;24.00;31.40;;;;;;6158867;28;86377;-64
2021/01/26 12:03:41;;;;;;;128.88;37.53;;;24.10;32.10;;;;;;6180473;28;83419;-64
2021/01/26 12:06:41;;;;;;;113.97;33.60;;;24.10;31.30;;;;;;6167398;28;85654;-64
2021/01/26 12:09:42;;;;;;;103.68;32.22;;;24.10;30.90;;;;;;6156733;28;84017;-64
2021/01/26 12:12:43;;;;;;;104.43;31.45;;;24.10;30.50;;;;;;6152676;28;83092;-64
2021/01/26 12:15:43;;;;;;;96.03;28.42;;;24.20;30.00;;;;;;6162506;27;83355;-64
2021/01/26 12:18:44;;;;;;;88.55;27.90;;;24.20;29.90;;;;;;6160522;28;83227;-64
2021/01/26 12:21:44;;;;;;;80.28;25.52;;;24.10;30.10;;;;;;6165231;28;85799;-64
2021/01/26 12:24:45;;;;;;;81.97;27.00;;;24.10;30.20;;;;;;6159694;28;83034;-66
2021/01/26 12:27:45;;;;;;;80.05;25.77;;;24.00;30.60;;;;;;6155312;28;84105;-64
2021/01/26 12:30:46;;;;;;;64.00;20.63;;;24.00;30.00;;;;;;6145682;28;83504;-67
2021/01/26 12:33:47;;;;;;;62.35;20.60;;;24.00;29.70;;;;;;6162042;28;90179;-68
2021/01/26 12:36:49;;;;;;;63.75;19.15;;;23.90;29.60;;;;;;6161647;28;83524;-67
2021/01/26 12:39:49;;;;;;;59.10;19.27;;;23.80;29.60;;;;;;6138569;28;84278;-65
2021/01/26 12:42:50;;;;;;;57.55;18.15;;;23.80;29.60;;;;;;6161743;28;83204;-68
2021/01/26 12:45:50;;;;;;;53.40;16.92;;;23.90;30.70;;;;;;6171429;28;83348;-65
2021/01/26 12:48:51;;;;;;;45.95;15.90;;;23.80;32.30;;;;;;6174185;28;83157;-66
2021/01/26 12:51:51;;;;;;;42.53;14.52;;;23.80;32.10;;;;;;6174889;28;84777;-70
2021/01/26 12:54:52;;;;;;;35.03;14.45;;;23.80;32.90;;;;;;6153437;28;84519;-65
2021/01/26 12:57:52;;;;;;;38.22;14.90;;;23.80;33.90;;;;;;6147832;28;83008;-66
2021/01/26 13:00:53;;;;;;;33.08;12.02;;;23.80;32.70;;;;;;6153639;28;84319;-67
2021/01/26 13:03:53;;;;;;;32.35;12.20;;;23.80;35.40;;;;;;6179657;27;83947;-67
2021/01/26 13:06:54;;;;;;;31.92;12.35;;;23.80;35.40;;;;;;6175543;28;83326;-67
2021/01/26 13:09:54;;;;;;;34.08;12.27;;;23.80;33.60;;;;;;6164224;27;83372;-67
2021/01/26 13:12:55;;;;;;;28.55;11.43;;;23.80;33.90;;;;;;6166010;28;83712;-66
2021/01/26 13:15:56;;;;;;;22.83;10.18;;;23.80;34.10;;;;;;6170356;28;83711;-66
2021/01/26 13:18:56;;;;;;;30.05;11.63;;;23.80;34.50;;;;;;6150027;28;82960;-65
2021/01/26 13:21:58;;;;;;;56.38;12.85;;;23.80;34.00;;;;;;6142209;28;84048;-71
2021/01/26 13:24:58;;;;;;;31.77;11.38;;;23.70;36.80;;;;;;6153725;28;83298;-71
2021/01/26 13:27:59;;;;;;;39.95;11.30;;;23.70;35.80;;;;;;6167076;28;83374;-68
2021/01/26 13:30:59;;;;;;;34.80;10.52;;;23.70;36.10;;;;;;6179228;27;84171;-67
2021/01/26 13:34:00;;;;;;;23.58;9.65;;;23.70;36.20;;;;;;6156803;28;84195;-67
2021/01/26 13:37:00;;;;;;;22.38;9.30;;;23.60;35.70;;;;;;6155336;28;82709;-66
2021/01/26 13:40:01;;;;;;;23.88;10.25;;;23.50;36.50;;;;;;6160435;28;81018;-67
2021/01/26 13:43:01;;;;;;;26.83;9.90;;;23.50;35.80;;;;;;6161909;28;83338;-66
2021/01/26 13:46:02;;;;;;;26.83;11.38;;;23.50;35.90;;;;;;6183182;28;83020;-66
2021/01/26 13:49:02;;;;;;;21.90;9.68;;;23.50;36.40;;;;;;6163342;27;82703;-66
2021/01/26 13:52:03;;;;;;;20.52;9.07;;;23.50;36.40;;;;;;6172226;27;82908;-64
2021/01/26 13:55:03;;;;;;;22.02;9.68;;;23.40;36.50;;;;;;6181095;27;80855;-65
2021/01/26 13:58:04;;;;;;;18.77;8.82;;;23.40;36.10;;;;;;6180232;27;80588;-65
2021/01/26 14:01:05;;;;;;;32.40;9.27;;;23.40;35.30;;;;;;6169948;28;80916;-64
2021/01/26 14:04:05;;;;;;;19.60;8.35;;;23.40;34.90;;;;;;6175386;28;81816;-64
2021/01/26 14:07:06;;;;;;;18.50;8.85;;;23.40;34.50;;;;;;6180636;28;80335;-65
2021/01/26 14:10:06;;;;;;;18.23;8.32;;;23.40;34.00;;;;;;6153978;28;80587;-67
2021/01/26 14:13:07;;;;;;;19.45;8.88;;;23.40;33.40;;;;;;6172477;28;81655;-66
2021/01/26 14:16:10;;;;;;;17.88;7.57;;;23.40;32.70;;;;;;6184021;27;80606;-66
2021/01/26 14:19:10;;;;;;;18.77;8.15;;;23.40;32.60;;;;;;6180513;28;81518;-64
2021/01/26 14:22:11;;;;;;;16.85;7.97;;;23.40;32.60;;;;;;6176043;27;80885;-68
2021/01/26 14:25:11;;;;;;;23.00;8.90;;;23.30;32.90;;;;;;6171992;28;80757;-63
2021/01/26 14:28:12;;;;;;;17.63;8.95;;;23.30;32.70;;;;;;6160597;27;82777;-64
2021/01/26 14:31:14;;;;;;;19.70;9.05;;;23.40;32.80;;;;;;6155649;28;80478;-62
2021/01/26 14:34:15;;;;;;;22.58;9.15;;;23.50;33.00;;;;;;6120520;28;81815;-63
2021/01/26 14:37:15;;;;;;;18.30;8.40;;;23.40;32.30;;;;;;6171152;28;81395;-63
2021/01/26 14:40:16;;;;;;;19.77;8.63;;;23.50;32.20;;;;;;6178436;27;81093;-68
2021/01/26 14:43:16;;;;;;;20.33;8.02;;;23.60;32.00;;;;;;6174614;27;80765;-64
2021/01/26 14:46:17;;;;;;;21.05;8.15;;;23.60;31.60;;;;;;6179789;28;81007;-63
2021/01/26 14:49:17;;;;;;;22.48;8.70;;;23.60;31.80;;;;;;6157159;27;81350;-60
2021/01/26 14:52:18;;;;;;;20.83;8.13;;;23.60;31.30;;;;;;6175372;28;81613;-61
2021/01/26 14:55:19;;;;;;;15.38;8.07;;;23.60;31.10;;;;;;6175190;27;81506;-62
2021/01/26 14:58:19;;;;;;;19.63;8.20;;;23.70;31.00;;;;;;6154483;28;80952;-64
2021/01/26 15:01:20;;;;;;;14.55;7.28;;;23.70;30.80;;;;;;6151980;28;80998;-65
2021/01/26 15:04:21;;;;;;;17.63;7.15;;;23.60;30.60;;;;;;6152006;28;81186;-63
2021/01/26 15:07:21;;;;;;;17.33;8.32;;;23.60;31.50;;;;;;6153456;28;80805;-63
2021/01/26 15:10:22;;;;;;;17.50;7.72;;;23.70;30.80;;;;;;6153544;27;81297;-62
2021/01/26 15:13:22;;;;;;;16.65;7.57;;;23.80;30.90;;;;;;6170249;28;80490;-63
2021/01/26 15:16:24;;;;;;;15.93;8.40;;;23.80;30.80;;;;;;6175571;27;80580;-65
2021/01/26 15:19:25;;;;;;;17.98;8.35;;;23.70;30.40;;;;;;6171469;28;81602;-65
2021/01/26 15:22:26;;;;;;;17.33;7.93;;;23.70;30.70;;;;;;6158424;28;81356;-64